Okeechobee, FL

9:21 PM EDT on April 18, 2015 (GMT -0400)
Okeechobee County | | Change Station
CLOSE
Current Station
Airport
Location: Okeechobee,
Elevation: 33 ft
Nearby Weather Stations

Elev 33 ft 27.27 °N, 80.85 °W | Updated 6 minutes ago

Mostly Cloudy
Mostly Cloudy
77 °F
Feels Like 77 °F
N
0
Wind Variable Wind from North

Today
High -- | Low -- °F
--% Chance of Precip.
Yesterday
High -- | Low -- °F
Precip. -- in
6:56 AM 7:49 PM
New Moon, 0% visible
Pressure 29.97 in
Visibility 10.0 miles
Clouds Scattered Clouds 4200 ft
Scattered Clouds 4800 ft
Mostly Cloudy 12000 ft
Dew Point 70 °F
Humidity 78%
Rainfall 0.00 in
Snow Depth Not available.
UV 0 out of 12
Pollen 5.30 out of 12
Air Quality Not available.
Flu Activity Local Activity
METAR KOBE 190115Z AUTO 00000KT 10SM SCT042 SCT048 BKN120 25/21 A2997 RMK AO2

More Conditions Fewer Conditions

Pressure 29.97 in
Visibility 10.0 miles
Clouds Scattered Clouds 4200 ft
Scattered Clouds 4800 ft
Mostly Cloudy 12000 ft
Dew Point 70 °F
Humidity 78%
Rainfall 0.00 in
Snow Depth Not available.
UV 0 out of 12
Pollen 5.30 out of 12
Air Quality Not available.
Flu Activity Local Activity
METAR KOBE 190115Z AUTO 00000KT 10SM SCT042 SCT048 BKN120 25/21 A2997 RMK AO2

More Conditions Fewer Conditions

Nowcast | as of 8:54 PM EDT on April 18, 2015

Through 10 PM isolated showers near Holopaw to Vero Beach...Fort Pierce and Stuart will diminish in coverage while moving east over the Atlantic and intracoastal waters. Affected areas will see brief moderate to heavy rain and perhaps a lightning strike. Additional details...including graphics are available online at: http://www.Srh.NOAA.Gov/mlb/blog.Php

×

10-Day Weather Forecast

Almanac

Astronomy

Apr. 18, 2015 Rise Set
Actual Time
Civil Twilight
Nautical Twilight
Astronomical Twilight
Moon
Length of Visible Light
Length of Day
Tomorrow will be .
, % of the Moon is Illuminated

Today's Extremes

State Highs State Lows

Community

WunderPhotos

Upload Photos

1,814,616 photos uploaded!

WunderBlogs® & News

Nearby

Air Quality

  Air Quality AQ Index Pollutant
Not available.

Snow Depth

Station Depth Elevation

Earthquake Activity

City Distance Mag. Time & Date
Minimum magnitude displayed is 2.5.

Coastal Water Temperatures

Place Temperature

Stations

Nearby Weather Stations

Station Location Temp. Windchill Dew Point Humidity Wind Precip. Elev Updated Type